Date,TemperatureHighF,TemperatureAvgF,TemperatureLowF,DewpointHighF,DewpointAvgF,DewpointLowF,HumidityHigh,HumidityAvg,HumidityLow,PressureMaxIn,PressureMinIn,WindSpeedMaxMPH,WindSpeedAvgMPH,GustSpeedMaxMPH,PrecipitationSumIn
2014-1-1,16,11,3,8,2,-5,80,67,57,30.36,30.06,16,2,20,0.00
2014-1-2,7,1,-2,2,-4,-7,89,77,67,30.38,29.97,4,0,6,0.00
2014-1-3,8,-1,-10,-3,-9,-17,82,69,49,30.34,29.87,10,2,21,0.00
2014-1-4,18,2,-11,2,-6,-18,83,68,45,30.44,30.17,4,0,5,0.00
2014-1-5,38,21,3,26,13,-1,92,75,40,30.31,30.02,3,0,4,0.03
2014-1-6,39,32,22,38,28,11,96,87,63,30.01,29.20,15,1,18,0.01
2014-1-7,22,9,3,15,-2,-11,85,61,46,29.99,29.32,16,2,21,0.00
2014-1-8,22,10,1,4,-1,-8,82,61,44,30.37,29.97,14,2,22,0.00
2014-1-9,24,13,0,6,2,-5,83,63,38,30.63,30.30,18,2,24,0.00
2014-1-10,26,14,-1,19,8,-5,89,78,55,30.58,30.26,3,0,4,0.00
2014-1-11,36,30,20,35,29,16,96,93,85,30.27,29.16,2,0,3,0.01
2014-1-12,42,37,33,41,29,22,100,74,60,29.85,29.16,27,4,32,0.04
2014-1-13,42,33,24,31,26,21,89,76,54,30.04,29.80,10,0,14,0.00
2014-1-14,37,35,33,35,33,30,95,93,87,29.81,29.59,5,0,6,0.34
2014-1-15,43,33,26,34,30,25,100,87,65,29.96,29.66,5,0,6,0.00
2014-1-16,33,31,28,31,29,27,95,92,88,29.92,29.84,4,0,6,0.01
2014-1-17,39,32,25,35,29,23,95,91,72,29.91,29.82,4,0,5,0.20
2014-1-18,36,26,20,28,22,18,93,86,55,29.89,29.68,4,0,4,0.01
2014-1-19,30,25,20,26,20,16,93,83,59,29.67,29.36,11,1,18,0.03
2014-1-20,34,24,2,23,14,-7,76,66,52,29.85,29.36,13,2,21,0.01
2014-1-21,9,2,-4,-4,-8,-11,83,63,49,30.05,29.84,7,2,14,0.00
2014-1-22,14,3,-4,-3,-8,-12,69,60,42,29.97,29.66,15,3,21,0.00
2014-1-23,16,5,-5,2,-4,-11,76,65,52,30.05,29.82,12,2,14,0.00
2014-1-24,16,4,-3,-3,-8,-11,71,58,36,30.17,29.86,10,2,14,0.00
2014-1-25,22,11,-1,17,4,-8,90,74,54,30.16,29.18,6,1,11,0.00
2014-1-26,20,10,2,14,-2,-13,81,60,40,29.85,29.20,20,2,28,0.00
2014-1-27,32,15,8,26,6,-5,91,67,42,29.91,29.45,14,1,22,0.00
2014-1-28,15,5,-3,-4,-8,-13,78,55,38,30.26,29.90,20,2,22,0.00
2014-1-29,24,12,-6,4,-3,-11,79,53,29,30.21,29.68,10,1,15,0.01
2014-1-30,27,14,3,8,3,-3,82,62,39,30.37,30.08,15,1,19,0.00
2014-1-31,37,24,10,20,13,5,83,65,46,30.12,29.91,14,1,16,0.01
2014-2-1,39,27,16,27,19,11,92,72,43,30.31,29.95,5,0,6,0.01
2014-2-2,39,34,29,35,30,21,94,86,70,30.05,29.80,14,1,16,0.15
2014-2-3,31,24,13,21,16,9,92,69,53,30.28,30.03,5,0,6,0.00
2014-2-4,35,19,9,16,10,5,84,70,38,30.42,30.25,7,1,9,0.00
2014-2-5,20,18,15,17,15,11,89,85,77,30.34,29.77,4,0,6,0.00
2014-2-6,26,12,4,13,4,-2,95,73,48,30.20,29.91,9,1,11,0.12
2014-2-7,24,14,2,10,4,-2,85,66,49,30.16,30.07,19,2,19,0.00
2014-2-8,28,15,1,8,4,-4,79,61,38,30.20,30.06,9,1,15,0.05
2014-2-9,26,17,7,15,8,2,89,69,49,30.17,29.92,6,0,9,0.03
2014-2-10,23,16,9,14,7,0,89,68,48,30.14,29.88,13,1,17,0.00
2014-2-11,22,10,2,4,-2,-7,77,59,40,30.40,30.12,11,2,16,0.00
2014-2-12,30,12,-2,6,-2,-10,75,55,29,30.51,30.38,6,1,12,0.02
2014-2-13,32,18,4,31,14,-2,93,82,70,30.38,29.23,11,0,14,0.00
2014-2-14,33,27,22,30,22,16,93,81,68,29.58,28.80,22,2,26,0.04
2014-2-15,32,24,16,23,19,13,92,81,66,29.83,29.48,10,1,13,0.01
2014-2-16,26,20,12,21,7,-3,81,58,41,29.88,29.38,16,3,24,0.00
2014-2-17,27,13,2,2,-3,-8,65,48,26,30.34,29.88,13,2,15,0.00
2014-2-18,22,13,-3,20,8,-9,91,80,66,30.36,29.98,2,0,2,0.00
2014-2-19,29,22,14,24,19,11,93,88,74,30.05,29.74,5,0,5,0.00
2014-2-20,43,36,26,31,26,22,94,70,45,30.15,29.75,28,4,28,0.07
2014-2-21,34,32,31,32,31,30,95,94,92,30.12,29.67,3,0,4,0.26
2014-2-22,46,36,24,35,24,6,95,67,28,29.83,29.72,15,2,21,0.30
2014-2-23,46,38,30,25,18,7,69,44,29,29.88,29.68,11,2,15,0.00
2014-2-24,33,22,14,16,9,4,67,56,35,29.84,29.67,13,2,29,0.00
2014-2-25,21,15,10,8,2,-2,70,57,43,29.88,29.81,16,2,24,0.00
2014-2-26,23,9,-3,12,-1,-8,82,65,42,29.87,29.69,10,1,13,0.00
2014-2-27,20,10,1,9,0,-7,84,66,41,29.80,29.58,9,1,14,0.00
2014-2-28,18,8,-3,3,-5,-10,76,56,36,30.44,29.77,16,2,21,0.01
2014-3-1,24,12,-5,13,-1,-11,77,59,34,30.44,29.99,6,0,7,0.00
2014-3-2,30,19,6,18,10,0,77,67,48,30.05,29.92,10,1,16,0.00
2014-3-3,21,9,-1,1,-5,-10,77,54,32,30.26,29.99,10,1,14,0.00
2014-3-4,24,10,-7,8,-3,-14,78,58,23,30.34,30.21,9,1,13,0.00
2014-3-5,22,13,0,14,6,-7,81,73,55,30.52,30.24,4,0,7,0.01
2014-3-6,33,14,0,10,-5,-14,74,45,19,30.61,30.49,10,2,12,0.01
2014-3-7,39,20,2,17,4,-5,79,54,18,30.50,29.92,7,0,10,0.00
2014-3-8,47,28,15,28,18,10,84,66,43,29.92,29.68,12,1,13,0.00
2014-3-9,32,24,14,14,9,3,79,55,34,29.89,29.80,14,1,14,0.00
2014-3-10,33,26,18,24,17,6,87,71,53,29.83,29.60,4,0,5,0.00
2014-3-11,44,34,25,33,27,23,93,79,61,29.68,29.43,19,2,19,0.17
2014-3-12,34,31,22,32,29,20,94,91,87,29.69,29.15,1,0,2,0.09
2014-3-13,22,13,6,20,9,1,92,85,78,29.82,29.09,11,0,16,0.00
2014-3-14,31,18,3,18,10,-2,82,70,53,30.07,29.82,9,1,12,0.10
2014-3-15,49,33,20,34,26,15,88,76,49,29.85,29.55,23,1,23,0.57
2014-3-16,29,16,6,22,3,-10,78,57,42,30.17,29.73,19,5,30,0.00
2014-3-17,26,11,-3,2,-5,-10,74,52,29,30.18,30.01,11,1,14,0.01
2014-3-18,39,19,0,16,2,-7,75,53,24,30.35,30.15,6,0,7,0.00
2014-3-19,36,24,12,26,15,6,92,71,38,30.38,30.03,6,0,7,0.00
2014-3-20,36,30,27,34,28,25,94,90,78,30.03,29.51,13,1,17,0.56
2014-3-21,31,28,23,25,21,15,82,75,63,29.93,29.59,16,2,21,0.01
2014-3-22,32,23,13,29,19,8,94,84,63,30.00,29.65,23,2,29,0.00
2014-3-23,27,22,7,25,20,3,94,91,84,30.07,29.83,15,2,22,0.08
2014-3-24,22,10,-1,17,6,-5,94,80,69,30.12,30.02,15,2,17,0.01
2014-3-25,30,14,-2,18,7,-6,92,74,57,30.13,30.01,11,1,15,0.00
2014-3-26,30,20,14,17,12,2,84,70,48,30.02,29.59,29,2,29,0.00
2014-3-27,38,24,9,23,7,-5,74,48,28,30.22,29.88,20,2,23,0.00
2014-3-28,39,32,28,38,28,21,95,86,69,30.14,29.87,5,0,6,0.20
2014-3-29,52,40,34,42,34,31,96,78,53,30.23,29.93,10,1,17,0.01
2014-3-30,38,35,32,35,32,28,95,89,81,30.10,29.74,10,1,13,0.68
2014-3-31,38,33,29,29,27,24,92,78,68,30.06,29.73,22,4,24,0.00
2014-4-1,53,38,28,31,27,23,85,67,37,30.09,29.98,12,2,15,0.00
2014-4-2,52,36,26,31,24,10,90,65,30,30.11,29.96,6,0,6,0.00
2014-4-3,45,37,25,26,24,22,92,62,44,30.07,30.00,11,2,14,0.00
2014-4-4,46,33,22,26,21,18,86,65,42,30.17,30.01,6,1,9,0.00
2014-4-5,46,36,30,40,30,23,95,81,57,29.95,29.60,5,1,20,0.48
2014-4-6,49,37,30,28,22,18,74,56,33,30.12,29.78,10,3,34,0.02
2014-4-7,56,43,30,32,28,20,85,59,33,30.21,30.02,7,1,9,0.00
2014-4-8,54,46,35,46,33,20,96,67,33,30.02,29.25,14,2,16,0.86
2014-4-9,44,38,30,37,27,11,95,68,32,29.86,29.36,14,2,18,0.00
2014-4-10,59,41,26,32,22,11,79,49,25,30.06,29.56,10,1,14,0.00
2014-4-11,63,48,37,39,32,26,90,57,27,30.00,29.56,12,2,17,0.04
2014-4-12,62,46,33,34,31,26,91,60,29,30.19,29.96,12,1,16,0.00
2014-4-13,40,36,33,38,33,31,94,88,78,30.33,30.02,4,0,5,0.40
2014-4-14,75,53,32,57,45,30,96,77,47,30.01,29.71,11,1,14,0.01
2014-4-15,59,53,38,58,50,35,95,90,71,29.76,29.42,12,1,19,1.35
2014-4-16,48,30,26,39,19,13,92,64,53,29.89,29.62,12,3,21,0.00
2014-4-17,48,33,26,39,16,12,82,52,32,30.81,29.84,7,2,17,0.00
2014-4-18,50,35,21,28,22,13,90,64,29,30.68,30.19,6,0,7,0.00
2014-4-19,48,37,28,36,28,22,94,72,42,30.41,30.09,14,2,18,0.01
2014-4-20,61,42,27,30,22,13,75,49,22,30.50,30.25,9,1,10,0.00
2014-4-21,74,52,36,39,33,28,80,53,22,30.25,29.75,11,0,12,0.00
2014-4-22,70,55,45,48,42,36,93,64,32,29.75,29.38,7,0,7,0.07
2014-4-23,52,43,34,46,31,16,94,64,47,30.80,29.37,14,2,22,0.02
2014-4-24,52,43,35,31,28,25,74,58,43,29.86,29.49,24,6,30,0.00
2014-4-25,64,48,31,33,26,20,81,47,22,29.96,29.78,18,1,20,0.00
2014-4-26,44,40,34,40,34,31,95,82,60,29.86,29.73,6,0,7,0.41
2014-4-27,54,41,35,42,36,32,95,84,55,30.03,29.84,12,1,15,0.05
2014-4-28,55,45,40,40,36,31,92,71,55,30.26,29.98,13,2,16,0.04
2014-4-29,56,44,38,38,34,32,90,68,41,30.54,30.25,10,1,11,0.00
2014-4-30,41,38,35,37,34,32,93,86,78,30.54,30.23,4,0,5,0.26
2014-5-1,41,32,35,40,20,-100,96,84,93,30.23,29.87,1,-104,2,0.47
2014-5-2,60,50,38,47,40,35,94,72,49,29.74,29.57,4,1,17,0.00
2014-5-3,61,49,37,48,41,34,91,74,45,29.80,29.68,3,0,15,0.14
2014-5-4,53,46,42,45,42,40,95,87,65,29.68,29.43,7,0,12,0.33
2014-5-5,58,47,42,43,34,-100,92,68,52,29.79,29.53,13,-43,23,0.00
2014-5-6,59,48,40,38,35,31,85,60,39,29.98,29.75,12,2,16,0.00
2014-5-7,65,51,38,36,33,28,76,52,30,30.16,29.98,11,2,18,0.00
2014-5-8,40,36,34,33,31,29,84,82,76,30.18,30.14,0,0,2,0.00
2014-5-9,52,48,39,38,28,25,74,48,35,30.24,30.14,5,0,5,0.02
2014-5-10,80,61,46,63,46,26,96,59,36,30.21,29.61,12,1,12,0.20
2014-5-11,72,61,48,42,40,34,74,47,26,29.97,29.69,13,2,17,0.00
2014-5-12,79,62,44,46,41,36,82,50,28,30.09,29.95,12,2,18,0.00
2014-5-13,60,51,46,48,44,36,91,77,46,30.30,30.09,5,0,7,0.05
2014-5-14,73,57,47,48,44,41,89,66,36,30.28,30.17,11,1,11,0.00
2014-5-15,73,58,44,62,53,42,93,84,66,30.26,30.14,6,0,7,0.00
2014-5-16,70,58,57,62,48,-100,96,84,71,30.15,29.94,7,-68,12,0.67
2014-5-17,75,52,50,61,27,-100,97,63,32,30.02,29.79,5,-162,8,0.74
2014-5-18,69,50,46,45,26,-100,84,52,33,30.08,29.97,7,-102,14,0.00
2014-5-19,60,43,44,47,24,-100,94,66,46,30.02,29.96,14,-126,14,0.40
2014-5-20,70,49,46,50,27,-100,93,60,45,29.99,29.90,14,-126,15,0.00
2014-5-21,69,53,45,55,32,-100,94,64,46,29.97,29.86,8,-114,9,0.00
2014-5-22,65,50,47,53,32,-100,95,70,63,29.91,29.81,4,-127,6,0.02
2014-5-23,54,45,50,53,29,-100,96,81,92,29.98,29.82,1,-147,2,0.52
2014-5-24,68,47,50,59,28,-100,97,74,62,30.02,29.90,5,-161,5,0.09
2014-5-25,71,51,43,58,36,-100,97,76,58,30.05,29.90,5,-102,5,0.00
2014-5-26,73,52,53,63,33,-100,96,73,65,29.92,29.70,7,-150,15,0.21
2014-5-27,58,44,44,57,28,-100,97,82,95,30.01,29.75,3,-148,4,0.69
2014-5-28,57,39,38,51,21,-100,97,77,78,30.23,29.97,5,-162,5,0.09
2014-5-29,73,52,35,52,41,34,100,72,28,30.24,30.08,5,0,7,0.00
2014-5-30,69,53,41,55,47,39,99,83,46,30.08,29.95,4,0,8,0.08
2014-5-31,69,54,43,58,49,41,96,83,46,30.31,30.04,2,0,7,0.00
2014-6-1,80,59,38,53,45,37,95,67,29,30.35,30.15,6,0,6,0.00
2014-6-2,87,64,46,61,52,44,94,70,33,30.17,29.93,6,0,6,0.00
2014-6-3,84,65,51,64,54,46,95,71,34,29.97,29.87,6,0,11,0.00
2014-6-4,60,56,53,54,51,45,95,84,74,29.89,29.76,3,0,5,0.00
2014-6-5,65,57,52,58,54,51,96,90,77,29.76,29.65,3,0,5,0.01
2014-6-6,75,62,54,58,54,52,94,76,47,29.81,29.63,12,1,13,0.00
2014-6-7,83,66,55,61,55,51,90,69,41,29.91,29.81,9,1,11,0.00
2014-6-8,85,67,53,64,57,50,93,73,37,29.93,29.81,5,0,6,0.00
2014-6-9,80,63,55,70,58,53,92,85,50,29.91,29.84,4,0,4,0.00
2014-6-10,72,61,50,66,58,48,96,88,76,30.12,29.89,5,0,6,0.07
2014-6-11,77,57,43,59,49,41,96,78,45,30.18,30.12,5,0,6,0.00
2014-6-12,56,54,51,55,52,50,96,95,93,30.21,30.10,0,0,2,1.34
2014-6-13,57,55,54,56,54,52,97,96,96,30.11,29.82,1,0,1,0.79
2014-6-14,68,59,51,64,56,49,97,91,70,29.88,29.77,4,0,7,0.07
2014-6-15,76,62,50,59,52,40,95,71,32,30.03,29.84,7,1,13,0.00
2014-6-16,84,63,46,59,51,42,93,69,33,30.13,29.98,4,0,5,0.00
2014-6-17,88,69,54,68,59,51,92,74,35,30.02,29.76,5,0,7,0.00
2014-6-18,74,67,64,66,62,56,96,85,69,29.88,29.57,9,0,11,0.40
2014-6-19,77,66,53,59,51,40,95,62,28,29.95,29.87,10,1,11,0.00
2014-6-20,69,56,46,51,44,38,88,66,39,29.97,29.87,9,1,12,0.00
2014-6-21,74,55,40,54,45,38,94,72,40,29.98,29.85,8,0,10,0.00
2014-6-22,77,57,42,59,49,40,95,77,43,30.03,29.90,4,0,6,0.00
2014-6-23,83,62,46,61,53,44,96,75,40,30.11,30.02,4,0,7,0.00
2014-6-24,72,62,53,64,58,51,95,87,70,30.10,29.90,3,0,5,0.00
2014-6-25,76,66,61,71,64,58,96,92,80,29.90,29.82,2,0,3,1.47
2014-6-26,70,64,53,66,62,51,97,92,76,30.02,29.78,5,0,6,1.67
2014-6-27,82,63,49,65,56,48,97,80,46,30.19,30.01,5,0,7,0.00
2014-6-28,84,65,50,64,55,48,96,75,36,30.27,30.18,3,0,4,0.00
2014-6-29,85,66,52,68,58,50,95,78,43,30.23,30.03,5,0,5,0.00
2014-6-30,90,71,57,75,64,56,96,80,47,30.03,29.82,4,0,6,0.00
2014-7-1,91,75,62,75,68,60,96,81,51,29.85,29.68,6,0,9,0.00
2014-7-2,94,74,66,77,69,65,96,85,46,29.88,29.69,6,0,7,1.50
2014-7-3,66,66,65,65,64,64,96,96,96,29.82,29.81,0,0,0,0.00
2014-7-4,69,64,50,68,62,50,97,91,50,29.95,29.82,2,0,7,0.30
2014-7-5,73,61,50,59,53,46,97,69,50,29.91,29.70,4,2,23,0.05
2014-7-6,83,68,50,64,57,50,85,68,40,29.89,29.73,3,1,15,0.00
2014-7-7,81,61,54,69,48,-100,96,79,53,29.80,29.61,5,-82,6,0.08
2014-7-8,83,65,61,74,52,-100,97,78,65,29.72,29.55,5,-93,7,0.00
2014-7-9,83,63,61,69,44,-100,96,66,45,29.86,29.53,9,-117,15,0.27
2014-7-10,80,61,52,62,51,48,95,67,41,30.16,29.85,6,0,10,0.00
2014-7-11,78,56,49,67,49,47,95,69,48,30.23,30.10,2,0,3,0.00
2014-7-12,86,59,51,68,52,49,96,67,40,30.22,30.03,3,0,5,0.00
2014-7-13,81,62,61,72,58,59,96,79,68,30.06,29.77,4,0,6,0.21
2014-7-14,86,61,60,72,56,59,97,74,51,29.85,29.75,6,0,7,0.13
2014-7-15,77,61,63,74,59,62,97,82,84,29.81,29.66,3,0,4,0.25
2014-7-16,72,58,60,71,56,59,97,81,90,29.82,29.69,4,0,4,0.37
2014-7-17,79,53,54,65,47,51,97,63,48,30.05,29.81,12,0,12,0.00
2014-7-18,80,51,50,64,43,49,96,56,41,30.23,30.02,6,0,7,0.00
2014-7-19,78,51,51,64,46,50,96,63,50,30.28,30.18,2,0,4,0.00
2014-7-20,79,49,56,66,45,54,96,62,53,30.22,30.11,4,0,4,0.02
2014-7-21,83,49,53,68,44,52,96,55,49,30.20,30.05,3,0,4,0.00
2014-7-22,90,56,58,72,49,56,97,58,49,30.12,29.89,6,0,12,0.00
2014-7-23,90,57,62,75,52,60,96,62,1,29.89,29.62,7,0,17,0.58
2014-7-24,78,67,52,67,60,50,97,54,1,29.89,29.68,6,0,14,0.00
2014-7-25,80,62,49,66,56,47,96,81,51,29.94,29.87,6,0,9,0.00
2014-7-26,82,64,53,67,57,51,96,80,37,29.93,29.81,10,0,10,0.00
2014-7-27,76,62,53,72,60,51,96,93,80,29.85,29.63,3,0,4,0.42
2014-7-28,67,64,62,66,63,61,97,97,96,29.65,29.45,2,0,3,1.27
2014-7-29,77,63,56,65,58,53,98,85,52,29.92,29.45,6,0,6,0.00
2014-7-30,76,61,53,64,56,51,95,85,53,30.03,29.92,3,0,5,0.00
2014-7-31,71,59,49,63,56,48,97,89,67,30.14,30.02,3,0,5,0.00
2014-8-1,82,64,50,67,59,49,97,86,52,30.19,30.13,4,0,4,0.00
2014-8-2,78,66,57,69,61,55,97,87,64,30.20,30.09,3,0,5,0.00
2014-8-3,81,65,53,69,61,52,97,87,63,30.11,30.01,3,0,4,0.00
2014-8-4,82,68,59,70,63,57,96,86,61,30.01,29.94,6,0,6,0.00
2014-8-5,83,67,55,71,62,54,97,86,61,30.01,29.86,3,0,3,0.00
2014-8-6,82,66,53,69,60,50,96,82,49,29.85,29.73,6,0,7,0.02
2014-8-7,77,61,50,62,54,48,95,81,50,29.91,29.81,5,0,9,0.00
2014-8-8,82,66,55,65,58,53,96,78,46,29.99,29.90,7,0,9,0.08
2014-8-9,84,68,55,66,59,53,95,75,44,30.07,29.96,6,0,10,0.00
2014-8-10,84,64,53,67,58,51,98,83,41,30.13,30.05,3,0,5,0.06
2014-8-11,86,66,54,71,61,53,97,86,48,30.14,30.06,6,0,6,0.01
2014-8-12,79,66,57,66,62,55,97,87,62,30.11,30.01,4,0,6,0.00
2014-8-13,65,61,57,62,59,56,97,94,90,30.01,29.64,5,0,9,2.07
2014-8-14,74,61,50,64,55,48,98,84,45,29.85,29.60,9,0,11,0.13
2014-8-15,69,56,46,59,52,44,96,85,59,29.86,29.80,3,0,6,0.00
2014-8-16,71,60,54,59,55,51,94,84,55,29.89,29.83,4,0,9,0.00
2014-8-17,67,59,55,63,56,54,96,92,76,29.85,29.76,5,0,7,0.10
2014-8-18,74,60,54,61,54,49,96,81,50,29.85,29.73,9,0,11,0.13
2014-8-19,80,61,49,64,55,47,96,81,45,29.94,29.82,3,0,5,0.00
2014-8-20,82,63,50,64,56,49,97,82,43,30.06,29.94,4,0,4,0.00
2014-8-21,75,61,54,63,57,53,96,86,58,30.09,30.03,2,0,5,0.00
2014-8-22,68,61,57,62,58,55,95,90,80,30.14,30.07,1,0,2,0.18
2014-8-23,76,60,52,64,57,51,97,89,58,30.15,30.09,4,0,6,0.00
2014-8-24,83,64,52,69,59,51,97,85,50,30.15,30.07,5,0,7,0.01
2014-8-25,90,69,55,73,62,54,96,80,44,30.15,30.06,3,0,5,0.00
2014-8-26,88,68,55,71,61,53,97,80,38,30.14,29.93,5,0,9,0.00
2014-8-27,87,71,58,69,62,57,95,77,43,29.93,29.79,7,0,12,0.00
2014-8-28,77,62,53,61,54,49,95,75,48,29.95,29.76,7,0,12,0.00
2014-8-29,80,63,54,61,54,48,93,73,42,30.22,29.94,6,0,8,0.00
2014-8-30,79,64,55,64,57,53,95,81,51,30.24,30.02,6,0,9,0.00
2014-8-31,80,66,56,71,62,54,96,90,71,30.02,29.88,3,0,3,0.04
2014-9-1,84,69,60,74,65,59,97,90,64,29.94,29.85,2,0,4,0.01
2014-9-2,87,70,58,76,65,57,97,87,63,29.91,29.63,3,0,5,0.00
2014-9-3,80,66,55,67,61,52,96,84,51,30.03,29.62,6,0,14,0.28
2014-9-4,82,63,52,67,57,50,96,83,47,30.16,30.03,3,0,6,0.00
2014-9-5,89,70,57,72,64,56,97,83,47,30.12,29.86,2,0,6,0.00
2014-9-6,86,68,60,71,64,58,97,88,53,29.86,29.67,6,0,12,0.14
2014-9-7,76,60,49,59,52,45,95,78,42,30.22,29.83,6,0,11,0.00
2014-9-8,75,57,45,60,52,43,98,83,51,30.39,30.22,2,0,6,0.00
2014-9-9,81,55,41,63,47,39,95,77,43,30.44,30.06,3,0,6,0.00
2014-9-10,74,57,42,61,51,41,96,84,56,30.22,29.99,4,0,5,0.00
2014-9-11,64,59,54,63,58,52,97,95,91,29.99,29.70,3,0,6,0.18
2014-9-12,147,25,47,84,23,44,100,64,18,30.24,29.82,6,1,9,0.00
2014-9-13,-200,0,200,-100,0,200,0,0,100,30.31,30.03,2,0,2,0.03
2014-9-14,-200,0,200,-100,0,200,0,0,100,30.08,30.08,0,0,0,0.00
2014-9-23,50,50,50,50,50,50,50,50,50,30.39,30.01,2,0,10,0.00
2014-9-24,50,50,50,50,50,50,50,50,50,30.60,30.39,1,0,5,0.00
2014-9-25,50,50,50,50,50,50,50,50,50,30.53,30.24,1,0,5,0.00
2014-9-26,50,50,50,50,50,50,50,50,50,30.24,30.13,1,0,9,0.00
2014-9-27,50,50,50,50,50,50,50,50,50,30.16,30.12,1,0,7,0.00
2014-9-28,50,50,50,50,50,50,50,50,50,30.16,29.96,0,0,4,0.00
2014-9-29,72,54,50,59,52,50,94,63,50,30.05,29.93,2,0,4,0.10
2014-9-30,68,56,52,58,53,51,96,89,64,30.06,29.97,3,0,6,0.11
2014-10-1,59,56,54,56,53,51,95,91,87,30.17,30.05,0,0,3,0.01
2014-10-2,71,56,44,58,51,42,97,86,57,30.20,30.08,4,0,7,0.02
2014-10-3,67,52,40,50,45,39,98,80,43,30.18,29.89,6,0,6,0.01
2014-10-4,56,54,51,55,53,50,99,96,92,29.89,29.53,1,0,2,0.82
2014-10-5,62,51,37,55,44,35,98,80,43,29.92,29.49,6,1,8,0.04
2014-10-6,63,46,33,45,38,32,98,77,35,30.15,29.92,6,0,13,0.00
2014-10-7,59,53,42,59,52,40,100,97,93,30.15,29.94,5,0,10,0.03
2014-10-8,66,57,52,57,50,31,99,81,44,29.95,29.61,11,1,14,0.04
2014-10-9,58,50,44,40,35,29,77,57,37,29.89,29.74,12,1,17,0.00
2014-10-10,59,48,40,39,36,30,89,64,38,30.10,29.90,13,0,13,0.00
2014-10-11,57,44,36,41,37,32,100,79,39,30.15,30.02,5,0,7,0.00
2014-10-12,58,44,34,40,35,32,95,73,38,30.30,30.10,6,0,9,0.00
2014-10-13,64,47,31,46,39,29,96,76,41,30.35,30.18,4,0,5,0.00
2014-10-14,77,59,44,61,53,43,100,81,54,30.21,30.06,11,0,12,0.00
2014-10-15,78,65,56,64,60,54,96,85,54,30.07,29.95,5,0,7,0.01
2014-10-16,66,64,62,65,63,61,99,97,96,29.95,29.63,5,0,6,1.39
2014-10-17,68,59,52,61,54,46,100,86,53,29.64,29.50,10,0,12,0.12
2014-10-18,56,52,46,55,50,45,98,95,83,29.59,29.46,10,0,11,0.12
2014-10-19,51,42,38,47,33,25,94,71,51,29.86,29.52,10,1,19,0.00
2014-10-20,55,42,35,35,27,21,86,58,32,29.98,29.85,10,1,16,0.00
2014-10-21,46,43,36,45,41,33,97,94,84,30.10,29.98,3,0,4,0.32
2014-10-22,49,46,44,46,44,44,98,93,84,30.17,30.02,12,1,13,0.55
2014-10-23,49,47,45,47,45,44,96,93,89,30.03,29.73,13,1,17,0.77
2014-10-24,54,46,44,46,43,38,97,88,71,29.74,29.64,13,1,13,0.09
2014-10-25,67,51,41,47,40,33,96,68,31,29.69,29.41,7,0,9,0.07
2014-10-26,49,45,42,46,41,36,100,87,73,29.62,29.36,7,1,12,0.10
2014-10-27,50,43,35,42,38,33,97,83,63,30.01,29.61,13,1,18,0.08
2014-10-28,50,43,35,43,40,34,97,90,71,30.09,29.96,3,0,4,0.01
2014-10-29,52,45,38,51,44,37,100,95,77,29.96,29.75,5,0,11,0.10
2014-10-30,49,42,30,41,36,28,94,80,60,29.99,29.81,7,1,10,0.01
2014-10-31,49,39,29,37,33,28,96,81,54,30.07,29.98,4,0,6,0.00
2014-11-1,40,37,34,37,34,29,95,87,69,30.03,29.90,6,0,13,0.06
2014-11-2,38,34,29,31,24,13,86,68,46,29.92,29.60,15,3,31,0.01
2014-11-3,52,37,26,24,16,6,63,43,25,30.02,29.70,0,0,0,0.00
2014-11-4,51,40,29,40,32,22,95,74,49,30.11,29.96,0,0,0,0.00
2014-11-5,59,46,36,46,35,27,97,70,35,30.05,29.90,6,0,8,0.00
2014-11-6,48,41,36,39,36,32,96,81,58,30.05,29.55,3,0,7,0.14
2014-11-7,43,37,32,39,32,22,97,81,63,29.68,29.41,11,2,16,0.08
2014-11-8,40,34,28,27,22,18,80,63,42,29.88,29.67,12,1,18,0.02
2014-11-9,52,38,28,32,29,25,90,72,42,29.99,29.82,9,0,10,0.00
2014-11-10,39,30,28,32,28,25,93,90,77,30.12,29.97,2,0,3,0.00
2014-11-11,57,41,30,44,36,29,96,83,55,30.19,29.96,4,0,13,0.00
2014-11-12,50,44,36,49,42,27,98,91,61,29.96,29.82,12,0,19,0.01
2014-11-13,45,36,30,29,24,17,94,63,34,30.02,29.92,5,0,6,0.00
2014-11-14,37,31,27,31,24,15,96,76,53,30.03,29.87,11,1,12,0.01
2014-11-15,34,28,22,17,14,11,77,57,41,30.28,30.02,13,2,16,0.00
2014-11-16,37,27,19,24,19,15,91,73,54,30.32,30.14,6,0,6,0.01
2014-11-17,33,31,29,32,29,23,97,91,70,30.08,29.38,1,0,3,0.01
2014-11-18,33,26,18,32,19,7,97,74,51,29.76,29.37,11,1,18,0.00
2014-11-19,31,23,15,16,12,7,88,65,41,30.06,29.75,17,2,27,0.00
2014-11-20,33,25,18,23,16,8,89,70,47,29.98,29.73,10,1,14,0.01
2014-11-21,27,21,18,16,10,3,84,61,48,30.31,29.82,14,2,18,0.00
2014-11-22,41,26,19,34,16,8,87,65,52,30.33,29.88,12,1,18,0.00
2014-11-23,47,39,34,42,36,26,96,86,71,30.13,29.91,12,1,15,0.00
2014-11-24,63,46,34,55,43,33,98,92,62,30.08,29.48,11,0,14,0.02
2014-11-25,62,52,40,50,31,22,65,45,26,30.02,29.53,18,2,18,0.00
2014-11-26,42,33,29,29,26,22,95,76,52,30.22,29.76,9,0,13,0.00
2014-11-27,33,28,22,27,22,18,94,80,63,30.02,29.73,11,2,15,0.10
2014-11-28,29,23,12,20,16,7,91,75,54,30.16,29.99,11,1,14,0.01
2014-11-29,29,16,8,15,10,4,91,76,46,30.32,30.16,4,0,6,0.01
2014-11-30,37,29,16,33,27,13,100,90,82,30.23,29.93,2,0,4,0.00
2014-12-1,48,36,28,44,30,14,98,81,56,30.42,29.91,18,1,18,0.00
2014-12-2,31,25,18,21,14,9,92,64,48,30.71,30.42,7,1,12,0.00
2014-12-3,35,29,23,34,28,21,100,95,92,30.48,29.77,5,0,6,0.00
2014-12-4,32,26,11,25,14,4,80,61,44,30.55,29.95,5,2,22,0.00
2014-12-5,26,17,6,20,10,2,92,75,48,30.73,30.51,6,0,6,0.01
2014-12-6,35,31,22,33,29,20,96,94,83,30.51,30.11,7,0,9,0.00
2014-12-7,33,21,4,29,7,-7,86,56,25,30.76,30.23,10,1,11,0.00
2014-12-8,21,12,3,17,2,-5,90,65,33,30.82,30.59,4,0,5,0.00
2014-12-9,36,30,19,34,29,16,97,95,88,30.59,29.73,12,1,14,0.00
2014-12-10,38,36,33,35,34,32,97,92,86,29.73,29.42,14,1,17,0.02
2014-12-11,36,34,32,35,33,31,98,97,96,29.69,29.41,1,0,3,0.00
2014-12-12,37,27,29,31,24,25,98,75,72,29.84,29.69,13,1,14,0.00
2014-12-13,36,33,30,29,27,25,87,78,69,29.78,29.70,10,1,14,0.00
2014-12-14,38,27,30,30,23,26,88,67,69,29.88,29.74,12,2,13,0.02
2014-12-15,32,24,27,26,21,23,90,72,75,30.02,29.86,14,3,14,0.00
2014-12-16,50,35,22,50,34,20,95,81,50,30.16,29.97,0,0,2,0.00
2014-12-17,50,40,33,50,39,32,98,75,50,29.97,29.61,11,0,11,0.00
2014-12-18,37,14,32,31,12,25,88,33,70,29.77,29.58,13,1,18,0.00
2014-12-19,31,16,23,22,12,18,82,45,64,30.12,29.74,13,2,15,0.00
2014-12-20,33,15,14,20,11,11,92,49,56,30.36,30.12,4,0,6,0.01
2014-12-21,30,22,12,24,18,10,100,86,75,30.39,30.32,2,0,3,0.00
2014-12-22,33,28,25,28,25,22,95,87,76,30.41,30.33,3,0,4,0.00
2014-12-23,34,32,30,33,31,28,97,96,95,30.35,30.23,0,0,0,0.00
2014-12-24,36,34,33,36,34,32,98,98,97,30.23,29.58,1,0,2,0.00
2014-12-25,46,40,35,45,33,25,99,78,57,29.77,29.38,25,4,29,0.01
2014-12-26,44,39,35,30,27,24,78,64,52,30.06,29.75,26,4,30,0.01
2014-12-27,48,38,32,32,31,29,92,74,51,30.11,29.90,19,1,24,0.00
2014-12-28,45,38,31,40,32,18,97,81,60,29.90,29.64,19,2,22,0.14
2014-12-29,31,26,16,21,11,-1,70,53,32,30.16,29.90,13,1,19,0.00
2014-12-30,22,14,8,6,-1,-10,81,52,27,30.30,30.15,13,1,18,0.00
2014-12-31,18,13,7,8,3,-1,82,65,50,30.24,30.00,14,1,16,0.00
2015-1-1,26,20,11,13,9,5,83,62,48,30.00,29.77,10,1,12,0.00
2015-1-2,28,22,14,22,11,-3,87,62,47,30.40,29.77,19,3,21,0.00